createdAt,value
2023-01-13T00:01:29.909Z,28.35
2023-01-13T00:03:58.167Z,25.60
2023-01-13T00:06:26.526Z,30.40
2023-01-13T00:08:55.465Z,24.85
2023-01-13T00:11:24.503Z,31.25
2023-01-13T00:13:52.747Z,23.42
2023-01-13T00:16:21.839Z,23.60
2023-01-13T00:18:53.266Z,26.27
2023-01-13T00:21:24.264Z,28.23
2023-01-13T00:23:54.670Z,25.02
2023-01-13T00:26:25.059Z,29.35
2023-01-13T00:28:58.738Z,24.67
2023-01-13T00:31:28.376Z,25.30
2023-01-13T00:34:01.391Z,21.25
2023-01-13T00:36:30.803Z,23.95
2023-01-13T00:39:00.968Z,27.63
2023-01-13T00:41:49.439Z,23.00
2023-01-13T00:44:17.738Z,25.45
2023-01-13T00:46:45.952Z,25.92
2023-01-13T00:49:14.209Z,32.72
2023-01-13T00:51:42.386Z,34.17
2023-01-13T00:54:10.588Z,37.90
2023-01-13T00:56:40.761Z,32.28
2023-01-13T00:59:14.399Z,40.60
2023-01-13T01:01:42.862Z,35.65
2023-01-13T01:04:12.197Z,38.20
2023-01-13T01:06:40.505Z,49.08
2023-01-13T01:09:12.833Z,42.17
2023-01-13T01:11:42.052Z,37.55
2023-01-13T01:14:12.428Z,36.20
2023-01-13T01:16:42.096Z,45.20
2023-01-13T01:19:11.066Z,36.95
2023-01-13T01:21:39.326Z,41.08
2023-01-13T01:24:07.842Z,32.00
2023-01-13T01:26:36.064Z,34.72
2023-01-13T01:29:04.372Z,39.33
2023-01-13T01:31:33.751Z,35.30
2023-01-13T01:34:02.908Z,37.13
2023-01-13T01:36:31.691Z,32.33
2023-01-13T01:39:00.471Z,34.90
2023-01-13T01:41:31.715Z,32.58
2023-01-13T01:44:22.150Z,37.03
2023-01-13T01:46:51.952Z,30.80
2023-01-13T01:49:29.864Z,31.27
2023-01-13T01:52:21.062Z,31.80
2023-01-13T01:55:01.420Z,30.30
2023-01-13T01:57:50.485Z,30.10
2023-01-13T02:00:18.924Z,28.65
2023-01-13T02:02:49.225Z,25.75
2023-01-13T02:05:18.246Z,25.98
2023-01-13T02:07:48.873Z,28.23
2023-01-13T02:10:21.063Z,22.42
2023-01-13T02:12:51.573Z,21.10
2023-01-13T02:15:32.307Z,19.75
2023-01-13T02:18:22.455Z,22.35
2023-01-13T02:21:02.655Z,15.15
2023-01-13T02:24:01.294Z,18.33
2023-01-13T02:26:39.698Z,20.83
2023-01-13T02:29:42.433Z,12.95
2023-01-13T02:32:36.137Z,20.27
2023-01-13T02:35:14.776Z,22.10
2023-01-13T02:37:44.787Z,16.90
2023-01-13T02:40:20.736Z,17.23
2023-01-13T02:43:20.850Z,15.95
2023-01-13T02:46:04.915Z,14.00
2023-01-13T02:48:35.533Z,17.33
2023-01-13T02:51:11.581Z,16.90
2023-01-13T02:53:48.312Z,16.30
2023-01-13T02:56:17.590Z,14.68
2023-01-13T02:58:48.824Z,19.08
2023-01-13T03:01:17.767Z,12.68
2023-01-13T03:03:47.020Z,12.98
2023-01-13T03:06:56.462Z,11.68
2023-01-13T03:09:38.728Z,15.95
2023-01-13T03:12:39.781Z,13.30
2023-01-13T03:15:37.182Z,16.50
2023-01-13T03:18:12.335Z,15.02
2023-01-13T03:20:52.745Z,20.73
2023-01-13T03:23:33.239Z,22.15
2023-01-13T03:26:14.240Z,22.65
2023-01-13T03:28:54.229Z,18.00
2023-01-13T03:31:29.776Z,20.98
2023-01-13T03:34:03.627Z,20.88
2023-01-13T03:36:34.388Z,20.75
2023-01-13T03:39:09.490Z,23.90
2023-01-13T03:41:44.430Z,17.55
2023-01-13T03:44:25.291Z,21.63
2023-01-13T03:47:11.927Z,20.95
2023-01-13T03:49:51.739Z,22.05
2023-01-13T03:52:26.567Z,21.35
2023-01-13T03:55:20.891Z,19.45
2023-01-13T03:58:14.306Z,13.98
2023-01-13T04:00:51.851Z,18.10
2023-01-13T04:04:03.690Z,17.10
2023-01-13T04:07:16.183Z,16.13
2023-01-13T04:09:56.669Z,18.60
2023-01-13T04:13:00.055Z,25.00
2023-01-13T04:15:37.342Z,22.05
2023-01-13T04:18:12.881Z,29.15
2023-01-13T04:20:42.501Z,28.13
2023-01-13T04:23:11.378Z,30.38
2023-01-13T04:25:41.200Z,28.50
2023-01-13T04:28:10.601Z,32.80
2023-01-13T04:30:42.464Z,26.60
2023-01-13T04:33:11.590Z,22.95
2023-01-13T04:35:40.449Z,24.65
2023-01-13T04:38:14.984Z,18.42
2023-01-13T04:40:43.930Z,25.85
2023-01-13T04:43:12.611Z,23.30
2023-01-13T04:45:41.223Z,26.88
2023-01-13T04:48:09.880Z,24.50
2023-01-13T04:50:38.083Z,24.48
2023-01-13T04:53:06.415Z,28.30
2023-01-13T04:55:36.510Z,21.05
2023-01-13T04:58:09.902Z,25.85
2023-01-13T05:00:38.591Z,25.48
2023-01-13T05:03:06.873Z,24.33
2023-01-13T05:05:35.306Z,28.67
2023-01-13T05:08:04.080Z,24.60
2023-01-13T05:10:32.303Z,31.85
2023-01-13T05:13:18.899Z,25.20
2023-01-13T05:16:22.562Z,24.55
2023-01-13T05:18:50.914Z,24.20
2023-01-13T05:21:37.876Z,21.35
2023-01-13T05:24:24.713Z,23.33
2023-01-13T05:26:52.925Z,26.80
2023-01-13T05:29:21.089Z,24.48
2023-01-13T05:31:49.292Z,23.05
2023-01-13T05:34:17.441Z,26.33
2023-01-13T05:36:45.713Z,24.88
2023-01-13T05:39:13.928Z,28.60
2023-01-13T05:42:01.101Z,24.95
2023-01-13T05:44:29.363Z,25.75
2023-01-13T05:46:57.616Z,23.15
2023-01-13T05:49:25.732Z,20.08
2023-01-13T05:51:53.867Z,21.63
2023-01-13T05:54:22.184Z,30.38
2023-01-13T05:56:51.513Z,24.30
2023-01-13T05:59:19.674Z,25.15
2023-01-13T06:01:47.844Z,28.27
2023-01-13T06:04:16.009Z,23.70
2023-01-13T06:06:44.801Z,28.05
2023-01-13T06:09:13.118Z,24.35
2023-01-13T06:11:41.264Z,23.77
2023-01-13T06:14:09.643Z,22.92
2023-01-13T06:16:38.704Z,25.02
2023-01-13T06:19:09.082Z,26.30
2023-01-13T06:21:37.489Z,25.92
2023-01-13T06:24:06.939Z,23.45
2023-01-13T06:26:40.689Z,23.48
2023-01-13T06:29:10.178Z,26.38
2023-01-13T06:31:39.969Z,21.90
2023-01-13T06:34:12.932Z,23.48
2023-01-13T06:36:54.034Z,30.20
2023-01-13T06:39:29.149Z,32.90
2023-01-13T06:42:16.902Z,32.00
2023-01-13T06:44:48.193Z,29.77
2023-01-13T06:47:16.805Z,28.52
2023-01-13T06:49:45.041Z,21.10
2023-01-13T06:52:13.258Z,23.80
2023-01-13T06:54:41.475Z,26.92
2023-01-13T06:57:09.760Z,28.25
2023-01-13T06:59:37.981Z,22.95
2023-01-13T07:02:06.656Z,21.13
2023-01-13T07:04:34.952Z,24.17
2023-01-13T07:07:03.222Z,25.45
2023-01-13T07:09:31.423Z,22.20
2023-01-13T07:12:02.491Z,24.70
2023-01-13T07:14:49.432Z,29.60
2023-01-13T07:17:25.158Z,26.92
2023-01-13T07:19:53.605Z,34.20
2023-01-13T07:22:21.910Z,35.33
2023-01-13T07:24:50.328Z,24.85
2023-01-13T07:27:18.579Z,30.98
2023-01-13T07:29:46.812Z,28.65
2023-01-13T07:32:15.634Z,34.08
2023-01-13T07:34:43.821Z,29.98
2023-01-13T07:37:12.003Z,35.13
2023-01-13T07:39:40.133Z,34.70
2023-01-13T07:42:27.752Z,29.50
2023-01-13T07:44:56.100Z,32.88
2023-01-13T07:47:24.580Z,31.92
2023-01-13T07:49:52.928Z,29.98
2023-01-13T07:52:21.074Z,28.67
2023-01-13T07:54:50.173Z,31.52
2023-01-13T07:57:19.126Z,31.52
2023-01-13T07:59:47.375Z,27.80
2023-01-13T08:02:18.885Z,26.77
2023-01-13T08:04:47.232Z,34.40
2023-01-13T08:07:15.464Z,36.08
2023-01-13T08:09:43.657Z,32.58
2023-01-13T08:12:30.591Z,31.92
2023-01-13T08:14:58.774Z,34.85
2023-01-13T08:17:27.210Z,34.55
2023-01-13T08:19:55.394Z,24.52
2023-01-13T08:22:23.811Z,30.17
2023-01-13T08:24:52.068Z,26.58
2023-01-13T08:27:20.534Z,28.38
2023-01-13T08:29:48.678Z,30.27
2023-01-13T08:32:16.930Z,28.33
2023-01-13T08:34:45.059Z,30.58
2023-01-13T08:37:16.037Z,29.02
2023-01-13T08:39:44.232Z,33.22
2023-01-13T08:42:12.520Z,35.15
2023-01-13T08:44:40.698Z,32.63
2023-01-13T08:47:08.995Z,33.05
2023-01-13T08:49:37.242Z,33.65
2023-01-13T08:52:05.749Z,29.02
2023-01-13T08:54:33.868Z,31.80
2023-01-13T08:57:03.418Z,29.35
2023-01-13T08:59:31.962Z,25.33
2023-01-13T09:02:00.618Z,33.30
2023-01-13T09:04:30.622Z,28.77
2023-01-13T09:06:58.867Z,34.42
2023-01-13T09:09:27.819Z,30.65
2023-01-13T09:12:14.775Z,35.55
2023-01-13T09:14:42.979Z,29.70
2023-01-13T09:17:11.303Z,35.40
2023-01-13T09:19:39.623Z,36.42
2023-01-13T09:22:07.986Z,30.20
2023-01-13T09:24:36.185Z,36.38
2023-01-13T09:27:04.493Z,23.02
2023-01-13T09:29:32.732Z,27.42
2023-01-13T09:32:01.017Z,28.42
2023-01-13T09:34:47.717Z,30.30
2023-01-13T09:37:16.051Z,24.48
2023-01-13T09:39:44.287Z,24.65
2023-01-13T09:42:37.137Z,29.25
2023-01-13T09:45:19.104Z,26.08
2023-01-13T09:48:05.340Z,25.77
2023-01-13T09:50:45.738Z,22.95
2023-01-13T09:53:29.057Z,20.23
2023-01-13T09:55:57.477Z,23.67
2023-01-13T09:58:26.038Z,24.27
2023-01-13T10:01:11.883Z,25.98
2023-01-13T10:03:43.269Z,24.67
2023-01-13T10:06:38.782Z,28.95
2023-01-13T10:09:12.683Z,27.08
2023-01-13T10:12:02.821Z,22.85
2023-01-13T10:14:54.959Z,30.02
2023-01-13T10:17:47.337Z,24.52
2023-01-13T10:20:52.457Z,21.90
2023-01-13T10:23:40.186Z,31.85
2023-01-13T10:26:27.367Z,29.27
2023-01-13T10:28:57.484Z,19.77
2023-01-13T10:31:26.591Z,25.83
2023-01-13T10:34:04.205Z,32.50
2023-01-13T10:36:32.568Z,22.80
2023-01-13T10:39:17.064Z,26.67
2023-01-13T10:41:45.749Z,23.70
2023-01-13T10:44:19.091Z,23.50
2023-01-13T10:46:55.671Z,19.27
2023-01-13T10:49:32.743Z,22.50
2023-01-13T10:52:02.873Z,28.50
2023-01-13T10:54:31.260Z,24.00
2023-01-13T10:57:18.845Z,22.50
2023-01-13T10:59:47.898Z,26.33
2023-01-13T11:02:29.958Z,26.58
2023-01-13T11:05:03.324Z,22.33
2023-01-13T11:07:36.552Z,29.50
2023-01-13T11:10:20.344Z,27.08
2023-01-13T11:12:59.033Z,35.03
2023-01-13T11:15:46.888Z,33.33
2023-01-13T11:18:40.200Z,32.65
2023-01-13T11:21:46.819Z,37.22
2023-01-13T11:24:54.160Z,30.75
2023-01-13T11:27:55.656Z,34.75
2023-01-13T11:30:33.853Z,39.03
2023-01-13T11:33:17.020Z,34.42
2023-01-13T11:36:16.748Z,31.40
2023-01-13T11:38:55.836Z,29.67
2023-01-13T11:41:44.512Z,34.53
2023-01-13T11:44:36.776Z,29.70
2023-01-13T11:47:05.084Z,29.95
2023-01-13T11:49:34.350Z,34.22
2023-01-13T11:52:16.569Z,33.65
2023-01-13T11:55:16.878Z,39.78
2023-01-13T11:58:01.316Z,36.08
2023-01-13T12:00:59.329Z,38.90
2023-01-13T12:03:27.925Z,40.25
2023-01-13T12:06:08.461Z,28.90
2023-01-13T12:08:59.397Z,37.17
2023-01-13T12:11:31.186Z,35.50
2023-01-13T12:14:24.089Z,32.97
2023-01-13T12:16:52.393Z,36.60
2023-01-13T12:19:30.236Z,32.05
2023-01-13T12:22:13.268Z,29.08
2023-01-13T12:24:46.423Z,27.83
2023-01-13T12:27:57.790Z,31.17
2023-01-13T12:30:50.711Z,37.42
2023-01-13T12:33:48.118Z,36.90
2023-01-13T12:36:29.595Z,35.80
2023-01-13T12:39:23.392Z,29.52
2023-01-13T12:42:17.498Z,36.30
2023-01-13T12:45:10.569Z,38.13
2023-01-13T12:47:46.375Z,30.83
2023-01-13T12:50:26.603Z,39.80
2023-01-13T12:53:15.900Z,32.58
2023-01-13T12:55:44.208Z,33.53
2023-01-13T12:58:15.441Z,38.53
2023-01-13T13:00:45.283Z,34.15
2023-01-13T13:03:19.779Z,32.83
2023-01-13T13:06:09.146Z,31.70
2023-01-13T13:08:50.536Z,36.83
2023-01-13T13:11:59.955Z,32.40
2023-01-13T13:14:40.536Z,35.10
2023-01-13T13:17:30.023Z,35.85
2023-01-13T13:19:59.725Z,36.20
2023-01-13T13:22:27.935Z,34.85
2023-01-13T13:24:56.226Z,29.23
2023-01-13T13:27:44.497Z,31.58
2023-01-13T13:30:21.757Z,29.95
2023-01-13T13:33:24.003Z,31.70
2023-01-13T13:36:07.328Z,29.05
2023-01-13T13:39:06.119Z,33.45
2023-01-13T13:41:54.700Z,31.52
2023-01-13T13:45:04.481Z,36.03
2023-01-13T13:47:39.680Z,28.63
2023-01-13T13:50:23.736Z,28.05
2023-01-13T13:52:58.810Z,29.35
2023-01-13T13:55:29.142Z,28.00
2023-01-13T13:57:59.168Z,33.25
2023-01-13T14:00:35.998Z,30.95
2023-01-13T14:03:08.095Z,30.98
2023-01-13T14:05:37.451Z,27.77
2023-01-13T14:08:17.762Z,38.92
2023-01-13T14:10:46.812Z,37.20
2023-01-13T14:13:27.145Z,38.67
2023-01-13T14:16:04.463Z,30.95
2023-01-13T14:18:48.667Z,35.13
2023-01-13T14:21:24.141Z,37.22
2023-01-13T14:24:13.710Z,30.92
2023-01-13T14:26:42.030Z,26.02
2023-01-13T14:29:18.473Z,34.45
2023-01-13T14:31:48.680Z,24.90
2023-01-13T14:34:32.633Z,27.27
2023-01-13T14:37:03.133Z,25.50
2023-01-13T14:39:38.909Z,29.95
2023-01-13T14:42:14.099Z,34.85
2023-01-13T14:44:46.264Z,30.92
2023-01-13T14:47:32.303Z,29.63
2023-01-13T14:50:27.765Z,28.55
2023-01-13T14:52:57.286Z,30.63
2023-01-13T14:55:32.081Z,32.92
2023-01-13T14:58:22.031Z,31.25
2023-01-13T15:00:51.961Z,30.73
2023-01-13T15:03:21.772Z,30.50
2023-01-13T15:05:52.927Z,31.80
2023-01-13T15:08:33.452Z,33.35
2023-01-13T15:11:08.098Z,33.22
2023-01-13T15:13:44.988Z,28.45
2023-01-13T15:16:26.393Z,24.52
2023-01-13T15:18:56.209Z,28.80
2023-01-13T15:21:25.098Z,29.10
2023-01-13T15:23:53.428Z,34.50
2023-01-13T15:26:24.872Z,34.13
2023-01-13T15:28:55.540Z,32.92
2023-01-13T15:31:24.612Z,34.03
2023-01-13T15:33:53.034Z,31.70
2023-01-13T15:36:27.658Z,37.75
2023-01-13T15:38:56.988Z,34.53
2023-01-13T15:41:44.247Z,37.40
2023-01-13T15:44:32.437Z,37.67
2023-01-13T15:47:06.075Z,46.60
2023-01-13T15:49:36.418Z,38.25
2023-01-13T15:52:22.851Z,45.75
2023-01-13T15:54:52.576Z,37.92
2023-01-13T15:57:27.886Z,39.13
2023-01-13T15:59:58.953Z,35.67
2023-01-13T16:02:29.349Z,43.00
2023-01-13T16:04:58.007Z,41.60
2023-01-13T16:07:26.637Z,36.03
2023-01-13T16:09:55.070Z,38.10
2023-01-13T16:12:23.385Z,37.25
2023-01-13T16:14:51.683Z,38.72
2023-01-13T16:17:23.347Z,37.60
2023-01-13T16:19:51.928Z,41.10
2023-01-13T16:22:20.198Z,37.53
2023-01-13T16:24:48.733Z,52.67
2023-01-13T16:27:22.472Z,44.78
2023-01-13T16:29:52.100Z,39.97
2023-01-13T16:32:21.061Z,37.60
2023-01-13T16:34:50.130Z,40.67
2023-01-13T16:37:23.861Z,39.47
2023-01-13T16:39:53.035Z,33.80
2023-01-13T16:42:21.802Z,33.35
2023-01-13T16:44:50.856Z,39.10
2023-01-13T16:47:19.343Z,52.70
2023-01-13T16:49:47.886Z,48.85
2023-01-13T16:52:16.111Z,39.17
2023-01-13T16:54:49.152Z,38.63
2023-01-13T16:57:24.380Z,42.35
2023-01-13T16:59:52.615Z,48.03
2023-01-13T17:02:21.167Z,49.88
2023-01-13T17:04:49.504Z,50.42
2023-01-13T17:07:18.303Z,59.60
2023-01-13T17:09:46.766Z,46.78
2023-01-13T17:12:15.053Z,52.63
2023-01-13T17:14:43.521Z,54.13
2023-01-13T17:17:23.829Z,55.13
2023-01-13T17:19:53.039Z,41.88
2023-01-13T17:22:22.053Z,42.00
2023-01-13T17:24:50.293Z,41.15
2023-01-13T17:27:18.778Z,41.28
2023-01-13T17:29:47.928Z,45.00
2023-01-13T17:32:20.894Z,36.83
2023-01-13T17:34:50.259Z,46.13
2023-01-13T17:37:18.945Z,40.05
2023-01-13T17:39:48.695Z,35.75
2023-01-13T17:42:17.039Z,36.80
2023-01-13T17:44:46.792Z,38.35
2023-01-13T17:47:15.543Z,35.58
2023-01-13T17:49:43.785Z,35.00
2023-01-13T17:52:12.045Z,40.53
2023-01-13T17:54:43.845Z,40.90
2023-01-13T17:57:12.373Z,36.03
2023-01-13T17:59:41.780Z,35.90
2023-01-13T18:02:12.491Z,33.63
2023-01-13T18:04:42.310Z,40.72
2023-01-13T18:07:10.515Z,37.70
2023-01-13T18:09:38.806Z,32.00
2023-01-13T18:12:07.126Z,40.50
2023-01-13T18:14:35.649Z,39.42
2023-01-13T18:17:03.868Z,36.35
2023-01-13T18:19:50.848Z,45.03
2023-01-13T18:22:37.932Z,48.00
2023-01-13T18:25:29.854Z,49.20
2023-01-13T18:28:01.320Z,48.30
2023-01-13T18:30:29.570Z,44.70
2023-01-13T18:32:58.160Z,42.00
2023-01-13T18:35:26.589Z,45.97
2023-01-13T18:37:54.748Z,47.70
2023-01-13T18:40:22.950Z,48.75
2023-01-13T18:42:51.341Z,46.47
2023-01-13T18:45:26.051Z,40.60
2023-01-13T18:47:56.185Z,49.13
2023-01-13T18:50:25.470Z,55.05
2023-01-13T18:52:54.332Z,59.17
2023-01-13T18:55:22.945Z,48.63
2023-01-13T18:57:52.044Z,46.53
2023-01-13T19:00:22.199Z,45.63
2023-01-13T19:05:36.270Z,49.83
2023-01-13T19:08:05.029Z,47.35
2023-01-13T19:10:33.372Z,50.10
2023-01-13T19:13:01.883Z,47.15
2023-01-13T19:15:35.864Z,49.53
2023-01-13T19:18:04.278Z,49.33
2023-01-13T19:20:32.586Z,48.60
2023-01-13T19:23:00.861Z,52.58
2023-01-13T19:25:29.255Z,44.67
2023-01-13T19:27:57.503Z,44.67
2023-01-13T19:30:25.746Z,43.25
2023-01-13T19:32:56.220Z,42.72
2023-01-13T19:35:24.447Z,48.67
2023-01-13T19:37:53.962Z,43.65
2023-01-13T19:40:22.440Z,51.35
2023-01-13T19:43:08.994Z,58.00
2023-01-13T19:45:37.214Z,53.85
2023-01-13T19:48:07.321Z,51.00
2023-01-13T19:50:39.933Z,46.15
2023-01-13T19:53:14.846Z,51.33
2023-01-13T19:55:48.633Z,45.08
2023-01-13T19:58:20.251Z,42.22
2023-01-13T20:00:48.713Z,38.30
2023-01-13T20:03:25.922Z,44.83
2023-01-13T20:05:54.922Z,43.65
2023-01-13T20:08:23.527Z,41.85
2023-01-13T20:11:11.729Z,46.85
2023-01-13T20:13:42.675Z,44.60
2023-01-13T20:16:10.985Z,44.58
2023-01-13T20:18:39.349Z,44.05
2023-01-13T20:21:08.075Z,39.42
2023-01-13T20:23:36.811Z,41.17
2023-01-13T20:26:08.618Z,38.17
2023-01-13T20:28:39.423Z,38.58
2023-01-13T20:31:09.761Z,36.70
2023-01-13T20:33:41.330Z,49.85
2023-01-13T20:36:22.693Z,46.38
2023-01-13T20:38:51.478Z,50.60
2023-01-13T20:41:38.783Z,47.50
2023-01-13T20:44:11.739Z,46.30
2023-01-13T20:46:43.252Z,39.53
2023-01-13T20:49:13.268Z,38.45
2023-01-13T20:51:43.091Z,35.80
2023-01-13T20:54:11.478Z,30.60
2023-01-13T20:56:40.872Z,32.53
2023-01-13T20:59:12.463Z,35.70
2023-01-13T21:01:41.351Z,29.75
2023-01-13T21:04:11.706Z,36.40
2023-01-13T21:06:41.965Z,31.85
2023-01-13T21:09:10.334Z,33.38
2023-01-13T21:11:57.311Z,30.67
2023-01-13T21:14:45.550Z,27.35
2023-01-13T21:17:34.446Z,32.35
2023-01-13T21:20:10.027Z,28.67
2023-01-13T21:22:39.078Z,24.58
2023-01-13T21:25:07.753Z,29.35
2023-01-13T21:27:39.305Z,34.33
2023-01-13T21:30:08.267Z,29.63
2023-01-13T21:32:36.463Z,35.33
2023-01-13T21:35:05.487Z,35.28
2023-01-13T21:37:38.351Z,35.45
2023-01-13T21:40:10.246Z,33.78
2023-01-13T21:42:57.329Z,32.58
2023-01-13T21:45:44.270Z,34.38
2023-01-13T21:48:12.632Z,37.40
2023-01-13T21:50:41.237Z,36.28
2023-01-13T21:53:09.641Z,37.10
2023-01-13T21:55:37.908Z,39.75
2023-01-13T21:58:14.385Z,37.47
2023-01-13T22:00:44.475Z,34.10
2023-01-13T22:03:17.255Z,37.30
2023-01-13T22:05:46.247Z,34.72
2023-01-13T22:08:14.621Z,37.58
2023-01-13T22:10:58.039Z,34.90
2023-01-13T22:13:46.239Z,35.97
2023-01-13T22:16:15.851Z,34.75
2023-01-13T22:18:44.136Z,35.60
2023-01-13T22:21:12.621Z,52.72
2023-01-13T22:23:40.865Z,60.85
2023-01-13T22:26:09.931Z,53.65
2023-01-13T22:28:46.624Z,42.75
2023-01-13T22:31:17.563Z,45.15
2023-01-13T22:33:47.189Z,38.10
2023-01-13T22:36:16.286Z,40.88
2023-01-13T22:38:44.675Z,37.88
2023-01-13T22:41:12.862Z,32.88
2023-01-13T22:43:41.881Z,34.17
2023-01-13T22:46:12.215Z,36.05
2023-01-13T22:48:41.422Z,31.30
2023-01-13T22:51:13.203Z,35.45
2023-01-13T22:53:42.551Z,36.83
2023-01-13T22:56:17.738Z,37.67
2023-01-13T22:58:46.354Z,34.22
2023-01-13T23:01:17.294Z,37.85
2023-01-13T23:03:48.217Z,37.53
2023-01-13T23:06:18.316Z,32.47
2023-01-13T23:08:47.480Z,35.30
2023-01-13T23:11:17.909Z,39.28
2023-01-13T23:13:46.374Z,32.58
2023-01-13T23:16:21.254Z,35.33
2023-01-13T23:18:50.087Z,37.40
2023-01-13T23:21:21.482Z,37.72
2023-01-13T23:23:49.863Z,36.13
2023-01-13T23:26:18.134Z,33.65
2023-01-13T23:28:48.695Z,32.45
2023-01-13T23:31:19.423Z,34.03
2023-01-13T23:33:48.544Z,33.47
2023-01-13T23:36:22.682Z,33.17
2023-01-13T23:38:51.841Z,35.03
2023-01-13T23:41:22.967Z,31.48
2023-01-13T23:43:53.090Z,33.95
2023-01-13T23:46:22.966Z,28.38
2023-01-13T23:48:51.716Z,31.00
2023-01-13T23:51:23.390Z,33.20
2023-01-13T23:53:52.168Z,32.67
2023-01-13T23:56:23.292Z,27.67
2023-01-13T23:58:51.977Z,34.22
